Richville, Oklahoma
Current Conditions -  °F | °C
As of 8:53 PM on Saturday 25 Oct 2014 (Local Time) from KMLC Reporting Station
Few Clouds Few Clouds  
Wind Chill: 71°   Ceiling: Unl
Heat Index: 71°   Visibility: 10mi
Dew Point: 63°   Wind: 3mph
Humidity: 75%   Direction: 210°SSW
Pressure: 30.04"   Gusts: NA
Location:  34.9351°N, 95.8929°W
Report Text: KMLC 260153Z AUTO 21003KT 10SM FEW080 FEW110 22/17 A3004 RMK AO2 SLP164 T02170172
Loading
Personal Weather Stations






























Interactive Weather Map
Tropical Storm Tracking
New forecast layout! Learn more

10-Day Weather Forecast

Advertisements
Track Severe Weather on mobile